sensor_id;sensor_type;location;lat;lon;timestamp;temperature;humidity
14053;DHT22;7101;51.600;7.310;2022-09-01T00:00:38;15.30;99.90
14053;DHT22;7101;51.600;7.310;2022-09-01T00:03:08;15.40;99.90
14053;DHT22;7101;51.600;7.310;2022-09-01T00:05:37;15.30;99.90
14053;DHT22;7101;51.600;7.310;2022-09-01T00:08:03;15.40;99.90
14053;DHT22;7101;51.600;7.310;2022-09-01T00:10:30;15.40;99.90
14053;DHT22;7101;51.600;7.310;2022-09-01T00:12:57;15.40;99.90
14053;DHT22;7101;51.600;7.310;2022-09-01T00:15:25;15.40;99.90
14053;DHT22;7101;51.600;7.310;2022-09-01T00:17:52;15.50;99.90
14053;DHT22;7101;51.600;7.310;2022-09-01T00:20:20;15.60;99.90
14053;DHT22;7101;51.600;7.310;2022-09-01T00:22:47;15.70;99.90
14053;DHT22;7101;51.600;7.310;2022-09-01T00:25:14;15.70;99.90
14053;DHT22;7101;51.600;7.310;2022-09-01T00:27:43;15.80;99.90
14053;DHT22;7101;51.600;7.310;2022-09-01T00:30:11;15.90;99.90
14053;DHT22;7101;51.600;7.310;2022-09-01T00:32:38;15.90;99.90
14053;DHT22;7101;51.600;7.310;2022-09-01T00:35:05;15.90;99.90
14053;DHT22;7101;51.600;7.310;2022-09-01T00:37:34;15.90;99.90
14053;DHT22;7101;51.600;7.310;2022-09-01T00:40:01;15.90;99.90
14053;DHT22;7101;51.600;7.310;2022-09-01T00:42:28;15.90;99.90
14053;DHT22;7101;51.600;7.310;2022-09-01T00:44:55;15.90;99.90
14053;DHT22;7101;51.600;7.310;2022-09-01T00:47:22;15.90;99.90
14053;DHT22;7101;51.600;7.310;2022-09-01T00:49:50;15.80;99.90
14053;DHT22;7101;51.600;7.310;2022-09-01T00:52:21;15.70;99.90
14053;DHT22;7101;51.600;7.310;2022-09-01T00:54:53;15.70;99.90
14053;DHT22;7101;51.600;7.310;2022-09-01T00:57:23;15.60;99.90
14053;DHT22;7101;51.600;7.310;2022-09-01T00:59:53;15.50;99.90
14053;DHT22;7101;51.600;7.310;2022-09-01T01:02:22;15.40;99.90
14053;DHT22;7101;51.600;7.310;2022-09-01T01:04:49;15.30;99.90
14053;DHT22;7101;51.600;7.310;2022-09-01T01:07:18;15.10;99.90
14053;DHT22;7101;51.600;7.310;2022-09-01T01:09:48;15.00;99.90
14053;DHT22;7101;51.600;7.310;2022-09-01T01:12:22;14.90;99.90
14053;DHT22;7101;51.600;7.310;2022-09-01T01:14:49;14.90;99.90
14053;DHT22;7101;51.600;7.310;2022-09-01T01:17:17;14.80;99.90
14053;DHT22;7101;51.600;7.310;2022-09-01T01:19:47;14.80;99.90
14053;DHT22;7101;51.600;7.310;2022-09-01T01:22:40;14.80;99.90
14053;DHT22;7101;51.600;7.310;2022-09-01T01:25:31;14.70;99.90
14053;DHT22;7101;51.600;7.310;2022-09-01T01:28:10;14.70;99.90
14053;DHT22;7101;51.600;7.310;2022-09-01T01:30:39;14.60;99.90
14053;DHT22;7101;51.600;7.310;2022-09-01T01:33:08;14.60;99.90
14053;DHT22;7101;51.600;7.310;2022-09-01T01:35:35;14.50;99.90
14053;DHT22;7101;51.600;7.310;2022-09-01T01:38:03;14.50;99.90
14053;DHT22;7101;51.600;7.310;2022-09-01T01:40:33;14.40;99.90
14053;DHT22;7101;51.600;7.310;2022-09-01T01:43:00;14.40;99.90
14053;DHT22;7101;51.600;7.310;2022-09-01T01:45:28;14.40;99.90
14053;DHT22;7101;51.600;7.310;2022-09-01T01:47:55;14.30;99.90
14053;DHT22;7101;51.600;7.310;2022-09-01T01:50:23;14.30;99.90
14053;DHT22;7101;51.600;7.310;2022-09-01T01:52:50;14.20;99.90
14053;DHT22;7101;51.600;7.310;2022-09-01T01:55:19;14.10;99.90
14053;DHT22;7101;51.600;7.310;2022-09-01T01:57:49;14.10;99.90
14053;DHT22;7101;51.600;7.310;2022-09-01T02:00:19;14.10;99.90
14053;DHT22;7101;51.600;7.310;2022-09-01T02:02:48;14.00;99.90
14053;DHT22;7101;51.600;7.310;2022-09-01T02:05:19;13.90;99.90
14053;DHT22;7101;51.600;7.310;2022-09-01T02:07:51;13.80;99.90
14053;DHT22;7101;51.600;7.310;2022-09-01T02:10:24;13.70;99.90
14053;DHT22;7101;51.600;7.310;2022-09-01T02:12:53;13.70;99.90
14053;DHT22;7101;51.600;7.310;2022-09-01T02:15:20;13.70;99.90
14053;DHT22;7101;51.600;7.310;2022-09-01T02:17:47;13.80;99.90
14053;DHT22;7101;51.600;7.310;2022-09-01T02:20:15;13.70;99.90
14053;DHT22;7101;51.600;7.310;2022-09-01T02:22:42;13.60;99.90
14053;DHT22;7101;51.600;7.310;2022-09-01T02:25:10;13.50;99.90
14053;DHT22;7101;51.600;7.310;2022-09-01T02:27:42;13.30;99.90
14053;DHT22;7101;51.600;7.310;2022-09-01T02:30:11;13.30;99.90
14053;DHT22;7101;51.600;7.310;2022-09-01T02:32:38;13.20;99.90
14053;DHT22;7101;51.600;7.310;2022-09-01T02:35:07;13.20;99.90
14053;DHT22;7101;51.600;7.310;2022-09-01T02:37:35;13.10;99.90
14053;DHT22;7101;51.600;7.310;2022-09-01T02:40:06;13.10;99.90
14053;DHT22;7101;51.600;7.310;2022-09-01T02:42:36;13.00;99.90
14053;DHT22;7101;51.600;7.310;2022-09-01T02:45:06;12.90;99.90
14053;DHT22;7101;51.600;7.310;2022-09-01T02:47:43;12.80;99.90
14053;DHT22;7101;51.600;7.310;2022-09-01T02:50:12;12.80;99.90
14053;DHT22;7101;51.600;7.310;2022-09-01T02:56:07;12.90;99.90
14053;DHT22;7101;51.600;7.310;2022-09-01T02:58:36;12.90;99.90
14053;DHT22;7101;51.600;7.310;2022-09-01T03:01:13;12.90;99.90
14053;DHT22;7101;51.600;7.310;2022-09-01T03:03:42;13.00;99.90
14053;DHT22;7101;51.600;7.310;2022-09-01T03:06:09;13.10;99.90
14053;DHT22;7101;51.600;7.310;2022-09-01T03:08:37;13.20;99.90
14053;DHT22;7101;51.600;7.310;2022-09-01T03:11:05;13.20;99.90
14053;DHT22;7101;51.600;7.310;2022-09-01T03:13:36;13.10;99.90
14053;DHT22;7101;51.600;7.310;2022-09-01T03:16:04;13.10;99.90
14053;DHT22;7101;51.600;7.310;2022-09-01T03:18:31;13.00;99.90
14053;DHT22;7101;51.600;7.310;2022-09-01T03:21:00;13.00;99.90
14053;DHT22;7101;51.600;7.310;2022-09-01T03:23:29;13.00;99.90
14053;DHT22;7101;51.600;7.310;2022-09-01T03:25:57;12.90;99.90
14053;DHT22;7101;51.600;7.310;2022-09-01T03:28:24;12.90;99.90
14053;DHT22;7101;51.600;7.310;2022-09-01T03:30:54;12.90;99.90
14053;DHT22;7101;51.600;7.310;2022-09-01T03:33:23;13.00;99.90
14053;DHT22;7101;51.600;7.310;2022-09-01T03:35:50;13.00;99.90
14053;DHT22;7101;51.600;7.310;2022-09-01T03:38:19;13.00;99.90
14053;DHT22;7101;51.600;7.310;2022-09-01T03:40:50;13.00;99.90
14053;DHT22;7101;51.600;7.310;2022-09-01T03:43:18;13.10;99.90
14053;DHT22;7101;51.600;7.310;2022-09-01T03:45:48;13.10;99.90
14053;DHT22;7101;51.600;7.310;2022-09-01T03:48:15;13.20;99.90
14053;DHT22;7101;51.600;7.310;2022-09-01T03:50:43;13.40;99.90
14053;DHT22;7101;51.600;7.310;2022-09-01T03:53:11;13.50;99.90
14053;DHT22;7101;51.600;7.310;2022-09-01T03:55:40;13.50;99.90
14053;DHT22;7101;51.600;7.310;2022-09-01T03:58:10;13.50;99.90
14053;DHT22;7101;51.600;7.310;2022-09-01T04:00:42;13.50;99.90
14053;DHT22;7101;51.600;7.310;2022-09-01T04:03:10;13.40;99.90
14053;DHT22;7101;51.600;7.310;2022-09-01T04:05:41;13.50;99.90
14053;DHT22;7101;51.600;7.310;2022-09-01T04:08:10;13.60;99.90
14053;DHT22;7101;51.600;7.310;2022-09-01T04:10:42;13.50;99.90
14053;DHT22;7101;51.600;7.310;2022-09-01T04:13:14;13.50;99.90
14053;DHT22;7101;51.600;7.310;2022-09-01T04:15:41;13.50;99.90
14053;DHT22;7101;51.600;7.310;2022-09-01T04:18:08;13.50;99.90
14053;DHT22;7101;51.600;7.310;2022-09-01T04:20:35;13.40;99.90
14053;DHT22;7101;51.600;7.310;2022-09-01T04:23:13;13.40;99.90
14053;DHT22;7101;51.600;7.310;2022-09-01T04:25:47;13.40;99.90
14053;DHT22;7101;51.600;7.310;2022-09-01T04:28:15;13.30;99.90
14053;DHT22;7101;51.600;7.310;2022-09-01T04:30:49;13.40;99.90
14053;DHT22;7101;51.600;7.310;2022-09-01T04:33:16;13.30;99.90
14053;DHT22;7101;51.600;7.310;2022-09-01T04:35:44;13.30;99.90
14053;DHT22;7101;51.600;7.310;2022-09-01T04:38:11;13.20;99.90
14053;DHT22;7101;51.600;7.310;2022-09-01T04:40:41;13.20;99.90
14053;DHT22;7101;51.600;7.310;2022-09-01T04:43:09;13.10;99.90
14053;DHT22;7101;51.600;7.310;2022-09-01T04:45:36;13.10;99.90
14053;DHT22;7101;51.600;7.310;2022-09-01T04:48:04;13.10;99.90
14053;DHT22;7101;51.600;7.310;2022-09-01T04:50:32;13.20;99.90
14053;DHT22;7101;51.600;7.310;2022-09-01T04:53:00;13.20;99.90
14053;DHT22;7101;51.600;7.310;2022-09-01T04:55:27;13.30;99.90
14053;DHT22;7101;51.600;7.310;2022-09-01T04:57:56;13.30;99.90
14053;DHT22;7101;51.600;7.310;2022-09-01T05:00:25;13.40;99.90
14053;DHT22;7101;51.600;7.310;2022-09-01T05:02:58;13.40;99.90
14053;DHT22;7101;51.600;7.310;2022-09-01T05:05:34;13.40;99.90
14053;DHT22;7101;51.600;7.310;2022-09-01T05:08:04;13.30;99.90
14053;DHT22;7101;51.600;7.310;2022-09-01T05:10:31;13.40;99.90
14053;DHT22;7101;51.600;7.310;2022-09-01T05:12:59;13.40;99.90
14053;DHT22;7101;51.600;7.310;2022-09-01T05:15:27;13.40;99.90
14053;DHT22;7101;51.600;7.310;2022-09-01T05:17:55;13.40;99.90
14053;DHT22;7101;51.600;7.310;2022-09-01T05:20:24;13.40;99.90
14053;DHT22;7101;51.600;7.310;2022-09-01T05:22:54;13.40;99.90
14053;DHT22;7101;51.600;7.310;2022-09-01T05:25:22;13.50;99.90
14053;DHT22;7101;51.600;7.310;2022-09-01T05:27:48;13.50;99.90
14053;DHT22;7101;51.600;7.310;2022-09-01T05:30:17;13.50;99.90
14053;DHT22;7101;51.600;7.310;2022-09-01T05:32:46;13.60;99.90
14053;DHT22;7101;51.600;7.310;2022-09-01T05:35:13;13.60;99.90
14053;DHT22;7101;51.600;7.310;2022-09-01T05:37:40;13.70;99.90
14053;DHT22;7101;51.600;7.310;2022-09-01T05:40:09;13.70;99.90
14053;DHT22;7101;51.600;7.310;2022-09-01T05:42:41;13.70;99.90
14053;DHT22;7101;51.600;7.310;2022-09-01T05:45:08;13.80;99.90
14053;DHT22;7101;51.600;7.310;2022-09-01T05:47:36;13.90;99.90
14053;DHT22;7101;51.600;7.310;2022-09-01T05:50:06;14.20;99.90
14053;DHT22;7101;51.600;7.310;2022-09-01T05:52:37;15.10;99.90
14053;DHT22;7101;51.600;7.310;2022-09-01T05:55:05;16.70;99.90
14053;DHT22;7101;51.600;7.310;2022-09-01T05:57:34;18.20;99.90
14053;DHT22;7101;51.600;7.310;2022-09-01T06:00:04;19.30;99.90
14053;DHT22;7101;51.600;7.310;2022-09-01T06:02:35;20.40;99.90
14053;DHT22;7101;51.600;7.310;2022-09-01T06:05:06;21.10;99.90
14053;DHT22;7101;51.600;7.310;2022-09-01T06:07:33;21.70;97.00
14053;DHT22;7101;51.600;7.310;2022-09-01T06:10:03;22.30;94.70
14053;DHT22;7101;51.600;7.310;2022-09-01T06:12:30;22.90;91.40
14053;DHT22;7101;51.600;7.310;2022-09-01T06:14:58;23.00;90.30
14053;DHT22;7101;51.600;7.310;2022-09-01T06:17:26;23.20;88.40
14053;DHT22;7101;51.600;7.310;2022-09-01T06:19:55;23.80;85.00
14053;DHT22;7101;51.600;7.310;2022-09-01T06:22:25;24.40;80.40
14053;DHT22;7101;51.600;7.310;2022-09-01T06:24:52;24.50;82.00
14053;DHT22;7101;51.600;7.310;2022-09-01T06:27:21;24.30;80.40
14053;DHT22;7101;51.600;7.310;2022-09-01T06:29:48;24.80;78.10
14053;DHT22;7101;51.600;7.310;2022-09-01T06:32:18;24.40;78.30
14053;DHT22;7101;51.600;7.310;2022-09-01T06:34:45;24.40;77.80
14053;DHT22;7101;51.600;7.310;2022-09-01T06:37:14;24.90;75.60
14053;DHT22;7101;51.600;7.310;2022-09-01T06:39:43;24.90;74.00
14053;DHT22;7101;51.600;7.310;2022-09-01T06:42:10;24.70;75.00
14053;DHT22;7101;51.600;7.310;2022-09-01T06:44:38;25.00;73.40
14053;DHT22;7101;51.600;7.310;2022-09-01T06:47:05;24.60;74.00
14053;DHT22;7101;51.600;7.310;2022-09-01T06:49:33;24.70;75.30
14053;DHT22;7101;51.600;7.310;2022-09-01T06:52:02;25.10;72.50
14053;DHT22;7101;51.600;7.310;2022-09-01T06:54:30;24.80;72.50
14053;DHT22;7101;51.600;7.310;2022-09-01T06:57:03;24.60;72.70
14053;DHT22;7101;51.600;7.310;2022-09-01T06:59:30;24.50;71.70
14053;DHT22;7101;51.600;7.310;2022-09-01T07:01:57;24.20;73.30
14053;DHT22;7101;51.600;7.310;2022-09-01T07:04:26;23.90;73.60
14053;DHT22;7101;51.600;7.310;2022-09-01T07:06:55;24.00;74.90
14053;DHT22;7101;51.600;7.310;2022-09-01T07:09:22;24.20;72.90
14053;DHT22;7101;51.600;7.310;2022-09-01T07:11:49;23.40;75.40
14053;DHT22;7101;51.600;7.310;2022-09-01T07:14:18;23.40;75.30
14053;DHT22;7101;51.600;7.310;2022-09-01T07:16:45;23.40;75.10
14053;DHT22;7101;51.600;7.310;2022-09-01T07:19:12;23.60;74.00
14053;DHT22;7101;51.600;7.310;2022-09-01T07:21:40;23.70;74.50
14053;DHT22;7101;51.600;7.310;2022-09-01T07:24:08;24.00;75.20
14053;DHT22;7101;51.600;7.310;2022-09-01T07:26:36;24.00;73.50
14053;DHT22;7101;51.600;7.310;2022-09-01T07:29:05;23.80;74.30
14053;DHT22;7101;51.600;7.310;2022-09-01T07:31:35;24.00;73.80
14053;DHT22;7101;51.600;7.310;2022-09-01T07:34:04;24.40;72.70
14053;DHT22;7101;51.600;7.310;2022-09-01T07:36:38;24.60;72.50
14053;DHT22;7101;51.600;7.310;2022-09-01T07:39:05;24.40;74.00
14053;DHT22;7101;51.600;7.310;2022-09-01T07:41:32;24.40;71.60
14053;DHT22;7101;51.600;7.310;2022-09-01T07:44:01;24.40;72.40
14053;DHT22;7101;51.600;7.310;2022-09-01T07:46:30;24.40;72.10
14053;DHT22;7101;51.600;7.310;2022-09-01T07:49:00;24.60;70.60
14053;DHT22;7101;51.600;7.310;2022-09-01T07:51:28;24.50;70.90
14053;DHT22;7101;51.600;7.310;2022-09-01T07:53:57;24.70;72.00
14053;DHT22;7101;51.600;7.310;2022-09-01T07:56:24;24.70;74.10
14053;DHT22;7101;51.600;7.310;2022-09-01T07:58:51;24.80;71.40
14053;DHT22;7101;51.600;7.310;2022-09-01T08:01:20;25.30;69.80
14053;DHT22;7101;51.600;7.310;2022-09-01T08:03:49;25.00;69.90
14053;DHT22;7101;51.600;7.310;2022-09-01T08:06:20;25.20;69.90
14053;DHT22;7101;51.600;7.310;2022-09-01T08:08:47;25.10;70.50
14053;DHT22;7101;51.600;7.310;2022-09-01T08:11:16;25.40;68.70
14053;DHT22;7101;51.600;7.310;2022-09-01T08:13:44;25.20;67.90
14053;DHT22;7101;51.600;7.310;2022-09-01T08:16:12;25.10;68.10
14053;DHT22;7101;51.600;7.310;2022-09-01T08:18:41;25.00;67.40
14053;DHT22;7101;51.600;7.310;2022-09-01T08:21:10;24.80;67.90
14053;DHT22;7101;51.600;7.310;2022-09-01T08:23:39;24.80;68.60
14053;DHT22;7101;51.600;7.310;2022-09-01T08:26:06;25.10;68.40
14053;DHT22;7101;51.600;7.310;2022-09-01T08:28:33;25.50;66.90
14053;DHT22;7101;51.600;7.310;2022-09-01T08:31:06;25.30;68.10
14053;DHT22;7101;51.600;7.310;2022-09-01T08:33:33;25.00;66.50
14053;DHT22;7101;51.600;7.310;2022-09-01T08:36:00;24.70;66.80
14053;DHT22;7101;51.600;7.310;2022-09-01T08:38:27;24.60;67.60
14053;DHT22;7101;51.600;7.310;2022-09-01T08:40:57;24.40;68.90
14053;DHT22;7101;51.600;7.310;2022-09-01T08:43:40;24.50;69.70
14053;DHT22;7101;51.600;7.310;2022-09-01T08:46:14;24.40;68.10
14053;DHT22;7101;51.600;7.310;2022-09-01T08:48:44;24.20;69.70
14053;DHT22;7101;51.600;7.310;2022-09-01T08:51:26;23.80;69.60
14053;DHT22;7101;51.600;7.310;2022-09-01T08:54:00;23.50;70.70
14053;DHT22;7101;51.600;7.310;2022-09-01T08:56:30;23.50;70.70
14053;DHT22;7101;51.600;7.310;2022-09-01T08:59:02;23.60;70.40
14053;DHT22;7101;51.600;7.310;2022-09-01T09:01:36;23.60;71.60
14053;DHT22;7101;51.600;7.310;2022-09-01T09:04:16;23.40;69.40
14053;DHT22;7101;51.600;7.310;2022-09-01T09:06:52;23.40;70.90
14053;DHT22;7101;51.600;7.310;2022-09-01T09:09:32;23.50;69.80
14053;DHT22;7101;51.600;7.310;2022-09-01T09:12:19;23.90;68.00
14053;DHT22;7101;51.600;7.310;2022-09-01T09:14:57;23.70;68.80
14053;DHT22;7101;51.600;7.310;2022-09-01T09:17:31;23.80;69.40
14053;DHT22;7101;51.600;7.310;2022-09-01T09:20:00;23.80;68.60
14053;DHT22;7101;51.600;7.310;2022-09-01T09:22:28;23.90;68.30
14053;DHT22;7101;51.600;7.310;2022-09-01T09:25:00;23.80;67.80
14053;DHT22;7101;51.600;7.310;2022-09-01T09:27:32;23.80;68.50
14053;DHT22;7101;51.600;7.310;2022-09-01T09:30:01;23.70;70.40
14053;DHT22;7101;51.600;7.310;2022-09-01T09:32:47;24.00;69.40
14053;DHT22;7101;51.600;7.310;2022-09-01T09:35:22;23.80;68.70
14053;DHT22;7101;51.600;7.310;2022-09-01T09:37:49;23.80;67.40
14053;DHT22;7101;51.600;7.310;2022-09-01T09:40:19;23.90;68.50
14053;DHT22;7101;51.600;7.310;2022-09-01T09:43:05;23.90;67.30
14053;DHT22;7101;51.600;7.310;2022-09-01T09:45:35;23.70;68.00
14053;DHT22;7101;51.600;7.310;2022-09-01T09:48:07;23.60;68.10
14053;DHT22;7101;51.600;7.310;2022-09-01T09:50:36;24.00;68.20
14053;DHT22;7101;51.600;7.310;2022-09-01T09:53:25;24.00;67.50
14053;DHT22;7101;51.600;7.310;2022-09-01T09:55:58;23.90;67.20
14053;DHT22;7101;51.600;7.310;2022-09-01T09:58:34;23.80;68.70
14053;DHT22;7101;51.600;7.310;2022-09-01T10:01:05;24.10;68.50
14053;DHT22;7101;51.600;7.310;2022-09-01T10:03:38;24.20;66.60
14053;DHT22;7101;51.600;7.310;2022-09-01T10:06:10;24.00;67.40
14053;DHT22;7101;51.600;7.310;2022-09-01T10:08:41;23.80;68.70
14053;DHT22;7101;51.600;7.310;2022-09-01T10:11:23;23.90;67.00
14053;DHT22;7101;51.600;7.310;2022-09-01T10:13:53;23.60;65.80
14053;DHT22;7101;51.600;7.310;2022-09-01T10:16:25;23.80;66.70
14053;DHT22;7101;51.600;7.310;2022-09-01T10:18:53;23.70;67.10
14053;DHT22;7101;51.600;7.310;2022-09-01T10:21:28;23.70;66.10
14053;DHT22;7101;51.600;7.310;2022-09-01T10:23:58;23.70;65.60
14053;DHT22;7101;51.600;7.310;2022-09-01T10:26:29;23.50;66.10
14053;DHT22;7101;51.600;7.310;2022-09-01T10:29:05;23.50;66.60
14053;DHT22;7101;51.600;7.310;2022-09-01T10:31:34;23.70;66.00
14053;DHT22;7101;51.600;7.310;2022-09-01T10:34:06;23.70;64.50
14053;DHT22;7101;51.600;7.310;2022-09-01T10:36:40;23.60;64.30
14053;DHT22;7101;51.600;7.310;2022-09-01T10:39:10;23.90;64.90
14053;DHT22;7101;51.600;7.310;2022-09-01T10:41:47;23.90;68.00
14053;DHT22;7101;51.600;7.310;2022-09-01T10:44:22;24.20;67.10
14053;DHT22;7101;51.600;7.310;2022-09-01T10:46:51;24.20;65.90
14053;DHT22;7101;51.600;7.310;2022-09-01T10:49:23;24.20;67.50
14053;DHT22;7101;51.600;7.310;2022-09-01T10:52:09;24.20;68.00
14053;DHT22;7101;51.600;7.310;2022-09-01T10:54:55;24.00;68.70
14053;DHT22;7101;51.600;7.310;2022-09-01T10:57:39;24.20;69.00
14053;DHT22;7101;51.600;7.310;2022-09-01T11:00:45;24.50;67.30
14053;DHT22;7101;51.600;7.310;2022-09-01T11:09:22;23.40;69.10
14053;DHT22;7101;51.600;7.310;2022-09-01T11:14:48;24.20;65.00
14053;DHT22;7101;51.600;7.310;2022-09-01T11:17:19;24.40;65.90
14053;DHT22;7101;51.600;7.310;2022-09-01T11:19:54;24.50;66.10
14053;DHT22;7101;51.600;7.310;2022-09-01T11:22:34;24.80;66.80
14053;DHT22;7101;51.600;7.310;2022-09-01T11:31:22;24.50;68.50
14053;DHT22;7101;51.600;7.310;2022-09-01T11:36:53;24.00;69.10
14053;DHT22;7101;51.600;7.310;2022-09-01T11:39:32;23.50;69.60
14053;DHT22;7101;51.600;7.310;2022-09-01T11:42:06;23.20;72.30
14053;DHT22;7101;51.600;7.310;2022-09-01T11:44:41;23.60;72.30
14053;DHT22;7101;51.600;7.310;2022-09-01T11:47:12;24.10;70.00
14053;DHT22;7101;51.600;7.310;2022-09-01T11:49:48;24.40;69.40
14053;DHT22;7101;51.600;7.310;2022-09-01T11:52:16;24.20;68.90
14053;DHT22;7101;51.600;7.310;2022-09-01T11:54:45;24.30;69.00
14053;DHT22;7101;51.600;7.310;2022-09-01T11:57:33;24.40;68.30
14053;DHT22;7101;51.600;7.310;2022-09-01T12:00:04;24.70;67.80
14053;DHT22;7101;51.600;7.310;2022-09-01T12:02:33;24.90;65.20
14053;DHT22;7101;51.600;7.310;2022-09-01T12:05:02;24.70;66.40
14053;DHT22;7101;51.600;7.310;2022-09-01T12:07:37;24.90;65.60
14053;DHT22;7101;51.600;7.310;2022-09-01T12:10:14;25.20;64.80
14053;DHT22;7101;51.600;7.310;2022-09-01T12:12:44;25.50;64.50
14053;DHT22;7101;51.600;7.310;2022-09-01T12:15:18;25.40;63.50
14053;DHT22;7101;51.600;7.310;2022-09-01T12:17:45;25.20;63.10
14053;DHT22;7101;51.600;7.310;2022-09-01T12:20:24;24.90;63.70
14053;DHT22;7101;51.600;7.310;2022-09-01T12:22:53;24.70;63.90
14053;DHT22;7101;51.600;7.310;2022-09-01T12:25:22;24.90;63.00
14053;DHT22;7101;51.600;7.310;2022-09-01T12:27:50;25.10;63.10
14053;DHT22;7101;51.600;7.310;2022-09-01T12:30:18;25.20;63.20
14053;DHT22;7101;51.600;7.310;2022-09-01T12:32:46;25.20;62.50
14053;DHT22;7101;51.600;7.310;2022-09-01T12:35:18;24.90;63.10
14053;DHT22;7101;51.600;7.310;2022-09-01T12:37:47;24.90;63.20
14053;DHT22;7101;51.600;7.310;2022-09-01T12:40:23;24.90;62.70
14053;DHT22;7101;51.600;7.310;2022-09-01T12:42:52;25.10;62.40
14053;DHT22;7101;51.600;7.310;2022-09-01T12:45:38;25.20;62.10
14053;DHT22;7101;51.600;7.310;2022-09-01T12:48:06;25.50;60.90
14053;DHT22;7101;51.600;7.310;2022-09-01T12:50:41;25.40;59.80
14053;DHT22;7101;51.600;7.310;2022-09-01T12:53:26;25.40;59.40
14053;DHT22;7101;51.600;7.310;2022-09-01T12:56:16;25.20;59.20
14053;DHT22;7101;51.600;7.310;2022-09-01T12:58:48;25.20;60.90
14053;DHT22;7101;51.600;7.310;2022-09-01T13:01:32;25.40;60.00
14053;DHT22;7101;51.600;7.310;2022-09-01T13:04:24;25.60;59.20
14053;DHT22;7101;51.600;7.310;2022-09-01T13:06:53;25.70;59.90
14053;DHT22;7101;51.600;7.310;2022-09-01T13:09:20;25.60;58.60
14053;DHT22;7101;51.600;7.310;2022-09-01T13:11:47;25.60;58.40
14053;DHT22;7101;51.600;7.310;2022-09-01T13:14:15;25.40;58.10
14053;DHT22;7101;51.600;7.310;2022-09-01T13:16:44;25.30;58.30
14053;DHT22;7101;51.600;7.310;2022-09-01T13:19:11;25.10;58.50
14053;DHT22;7101;51.600;7.310;2022-09-01T13:21:37;25.30;58.40
14053;DHT22;7101;51.600;7.310;2022-09-01T13:24:05;25.30;57.90
14053;DHT22;7101;51.600;7.310;2022-09-01T13:26:32;25.30;57.90
14053;DHT22;7101;51.600;7.310;2022-09-01T13:28:59;25.40;57.80
14053;DHT22;7101;51.600;7.310;2022-09-01T13:31:28;25.40;57.30
14053;DHT22;7101;51.600;7.310;2022-09-01T13:33:56;25.30;58.80
14053;DHT22;7101;51.600;7.310;2022-09-01T13:36:23;25.30;57.30
14053;DHT22;7101;51.600;7.310;2022-09-01T13:38:50;25.20;57.40
14053;DHT22;7101;51.600;7.310;2022-09-01T13:41:17;25.20;58.60
14053;DHT22;7101;51.600;7.310;2022-09-01T13:43:44;25.50;56.90
14053;DHT22;7101;51.600;7.310;2022-09-01T13:46:11;25.50;57.70
14053;DHT22;7101;51.600;7.310;2022-09-01T13:48:39;25.40;57.50
14053;DHT22;7101;51.600;7.310;2022-09-01T13:51:06;25.40;56.60
14053;DHT22;7101;51.600;7.310;2022-09-01T13:53:35;25.40;56.40
14053;DHT22;7101;51.600;7.310;2022-09-01T13:56:02;25.40;56.70
14053;DHT22;7101;51.600;7.310;2022-09-01T13:58:29;25.50;56.60
14053;DHT22;7101;51.600;7.310;2022-09-01T14:00:56;25.30;56.70
14053;DHT22;7101;51.600;7.310;2022-09-01T14:03:23;25.40;56.60
14053;DHT22;7101;51.600;7.310;2022-09-01T14:05:52;25.30;56.60
14053;DHT22;7101;51.600;7.310;2022-09-01T14:08:20;25.20;57.40
14053;DHT22;7101;51.600;7.310;2022-09-01T14:10:48;25.50;57.00
14053;DHT22;7101;51.600;7.310;2022-09-01T14:13:17;25.50;56.60
14053;DHT22;7101;51.600;7.310;2022-09-01T14:15:44;25.60;57.20
14053;DHT22;7101;51.600;7.310;2022-09-01T14:18:11;25.70;56.70
14053;DHT22;7101;51.600;7.310;2022-09-01T14:20:43;25.60;56.20
14053;DHT22;7101;51.600;7.310;2022-09-01T14:23:13;25.30;56.10
14053;DHT22;7101;51.600;7.310;2022-09-01T14:25:44;25.50;56.60
14053;DHT22;7101;51.600;7.310;2022-09-01T14:28:12;25.50;56.10
14053;DHT22;7101;51.600;7.310;2022-09-01T14:30:40;25.40;55.70
14053;DHT22;7101;51.600;7.310;2022-09-01T14:33:08;25.30;56.00
14053;DHT22;7101;51.600;7.310;2022-09-01T14:35:38;25.40;55.80
14053;DHT22;7101;51.600;7.310;2022-09-01T14:38:04;25.30;55.80
14053;DHT22;7101;51.600;7.310;2022-09-01T14:40:35;25.20;55.70
14053;DHT22;7101;51.600;7.310;2022-09-01T14:43:03;25.20;56.20
14053;DHT22;7101;51.600;7.310;2022-09-01T14:45:31;25.20;55.80
14053;DHT22;7101;51.600;7.310;2022-09-01T14:47:59;25.20;55.60
14053;DHT22;7101;51.600;7.310;2022-09-01T14:50:27;25.20;55.90
14053;DHT22;7101;51.600;7.310;2022-09-01T14:52:57;25.30;55.70
14053;DHT22;7101;51.600;7.310;2022-09-01T14:55:26;25.20;55.60
14053;DHT22;7101;51.600;7.310;2022-09-01T14:57:55;25.10;55.80
14053;DHT22;7101;51.600;7.310;2022-09-01T15:00:23;25.20;55.90
14053;DHT22;7101;51.600;7.310;2022-09-01T15:02:51;25.30;55.70
14053;DHT22;7101;51.600;7.310;2022-09-01T15:05:19;25.30;55.00
14053;DHT22;7101;51.600;7.310;2022-09-01T15:07:46;25.30;55.30
14053;DHT22;7101;51.600;7.310;2022-09-01T15:10:15;25.20;56.00
14053;DHT22;7101;51.600;7.310;2022-09-01T15:12:41;25.20;54.60
14053;DHT22;7101;51.600;7.310;2022-09-01T15:15:11;25.20;55.30
14053;DHT22;7101;51.600;7.310;2022-09-01T15:17:37;25.10;55.30
14053;DHT22;7101;51.600;7.310;2022-09-01T15:20:05;25.10;55.40
14053;DHT22;7101;51.600;7.310;2022-09-01T15:22:50;25.20;55.00
14053;DHT22;7101;51.600;7.310;2022-09-01T15:25:17;25.20;54.70
14053;DHT22;7101;51.600;7.310;2022-09-01T15:27:44;25.10;54.40
14053;DHT22;7101;51.600;7.310;2022-09-01T15:30:13;25.10;54.50
14053;DHT22;7101;51.600;7.310;2022-09-01T15:32:41;25.10;54.60
14053;DHT22;7101;51.600;7.310;2022-09-01T15:35:09;25.20;55.00
14053;DHT22;7101;51.600;7.310;2022-09-01T15:37:36;25.10;54.90
14053;DHT22;7101;51.600;7.310;2022-09-01T15:40:05;25.10;54.90
14053;DHT22;7101;51.600;7.310;2022-09-01T15:42:32;25.20;54.80
14053;DHT22;7101;51.600;7.310;2022-09-01T15:45:01;25.10;55.30
14053;DHT22;7101;51.600;7.310;2022-09-01T15:47:29;25.10;54.70
14053;DHT22;7101;51.600;7.310;2022-09-01T15:49:56;24.90;55.00
14053;DHT22;7101;51.600;7.310;2022-09-01T15:52:24;24.90;55.90
14053;DHT22;7101;51.600;7.310;2022-09-01T15:54:52;24.90;54.60
14053;DHT22;7101;51.600;7.310;2022-09-01T15:57:19;24.80;54.80
14053;DHT22;7101;51.600;7.310;2022-09-01T15:59:45;24.70;54.80
14053;DHT22;7101;51.600;7.310;2022-09-01T16:02:12;24.80;55.50
14053;DHT22;7101;51.600;7.310;2022-09-01T16:04:43;24.80;54.70
14053;DHT22;7101;51.600;7.310;2022-09-01T16:07:10;24.70;54.60
14053;DHT22;7101;51.600;7.310;2022-09-01T16:09:36;24.70;54.70
14053;DHT22;7101;51.600;7.310;2022-09-01T16:12:04;24.80;55.00
14053;DHT22;7101;51.600;7.310;2022-09-01T16:14:32;24.70;54.90
14053;DHT22;7101;51.600;7.310;2022-09-01T16:17:02;24.60;55.10
14053;DHT22;7101;51.600;7.310;2022-09-01T16:19:36;24.50;55.20
14053;DHT22;7101;51.600;7.310;2022-09-01T16:22:10;24.40;55.70
14053;DHT22;7101;51.600;7.310;2022-09-01T16:24:41;24.30;55.80